Spanaway, Washington
Current Conditions -  °F | °C
As of 6:58 PM on Tuesday 21 Oct 2014 (Local Time) from KTCM Reporting Station
Overcast Overcast  
Wind Chill: 59°   Ceiling: 6500
Heat Index: 59°   Visibility: 10mi
Dew Point: 49°   Wind: 7mph
Humidity: 68%   Direction: 150°SSE
Pressure: 29.86"   Gusts: NA
Location:  47.07°N, 122.41°W
Report Text: KTCM 220158Z AUTO 15006KT 10SM OVC065 15/09 A2986 RMK AO2 SLP115 T01500092 $
Loading
Personal Weather Stations






























Interactive Weather Map
Tropical Storm Tracking
New forecast layout! Learn more

10-Day Weather Forecast

Advertisements
Track Severe Weather on mobile